createdAt,value
2024-02-22T00:01:57.780Z,29.90
2024-02-22T00:04:26.517Z,34.70
2024-02-22T00:06:55.143Z,42.40
2024-02-22T00:09:23.653Z,37.60
2024-02-22T00:11:52.430Z,31.90
2024-02-22T00:14:21.568Z,41.40
2024-02-22T00:16:50.812Z,44.30
2024-02-22T00:19:19.897Z,46.70
2024-02-22T00:21:48.540Z,49.60
2024-02-22T00:24:17.128Z,36.70
2024-02-22T00:26:47.277Z,45.10
2024-02-22T00:29:16.026Z,35.80
2024-02-22T00:31:44.623Z,39.40
2024-02-22T00:34:13.464Z,27.70
2024-02-22T00:36:45.641Z,30.00
2024-02-22T00:39:15.836Z,30.20
2024-02-22T00:41:44.337Z,40.10
2024-02-22T00:44:12.979Z,45.10
2024-02-22T00:46:41.546Z,42.70
2024-02-22T00:49:10.215Z,50.80
2024-02-22T00:51:38.808Z,56.30
2024-02-22T00:54:07.351Z,51.00
2024-02-22T00:56:36.007Z,52.60
2024-02-22T00:59:04.635Z,64.80
2024-02-22T01:01:33.642Z,63.80
2024-02-22T01:04:02.965Z,65.50
2024-02-22T01:06:33.077Z,65.90
2024-02-22T01:09:02.178Z,70.10
2024-02-22T01:11:30.831Z,70.00
2024-02-22T01:13:59.466Z,72.50
2024-02-22T01:16:28.190Z,70.30
2024-02-22T01:18:56.974Z,71.80
2024-02-22T01:21:25.613Z,69.40
2024-02-22T01:23:54.246Z,67.40
2024-02-22T01:26:23.354Z,65.70
2024-02-22T01:28:52.255Z,66.10
2024-02-22T01:31:20.837Z,65.60
2024-02-22T01:33:49.542Z,67.60
2024-02-22T01:36:19.708Z,71.30
2024-02-22T01:38:48.271Z,74.20
2024-02-22T01:41:17.787Z,80.40
2024-02-22T01:43:46.406Z,80.60
2024-02-22T01:46:15.813Z,83.20
2024-02-22T01:48:44.851Z,82.80
2024-02-22T01:51:13.440Z,85.60
2024-02-22T01:53:42.705Z,90.70
2024-02-22T01:56:13.208Z,86.20
2024-02-22T01:58:42.400Z,82.60
2024-02-22T02:01:12.936Z,84.50
2024-02-22T02:03:46.862Z,84.20
2024-02-22T02:06:15.529Z,83.10
2024-02-22T02:08:44.270Z,83.40
2024-02-22T02:11:12.909Z,83.60
2024-02-22T02:13:41.528Z,82.80
2024-02-22T02:16:10.138Z,84.10
2024-02-22T02:18:40.112Z,83.40
2024-02-22T02:21:38.510Z,89.80
2024-02-22T02:24:34.355Z,92.80
2024-02-22T02:27:03.179Z,93.80
2024-02-22T02:29:32.004Z,96.00
2024-02-22T02:32:00.579Z,98.70
2024-02-22T02:34:29.212Z,99.90
2024-02-22T02:36:57.819Z,99.90
2024-02-22T02:39:26.354Z,99.90
2024-02-22T02:41:54.938Z,99.90
2024-02-22T02:44:23.625Z,99.90
2024-02-22T02:46:52.323Z,99.90
2024-02-22T02:49:21.107Z,99.90
2024-02-22T02:51:49.936Z,99.90
2024-02-22T02:54:18.505Z,99.90
2024-02-22T02:56:48.793Z,99.90
2024-02-22T02:59:18.888Z,99.90
2024-02-22T03:01:48.831Z,99.90
2024-02-22T03:04:20.745Z,99.90
2024-02-22T03:06:49.509Z,99.90
2024-02-22T03:09:18.116Z,99.90
2024-02-22T03:11:46.806Z,99.90
2024-02-22T03:14:17.337Z,99.90
2024-02-22T03:16:45.929Z,99.90
2024-02-22T03:19:14.506Z,99.90
2024-02-22T03:21:43.031Z,99.90
2024-02-22T03:24:11.518Z,99.90
2024-02-22T03:26:40.017Z,99.90
2024-02-22T03:29:09.772Z,99.90
2024-02-22T03:31:38.335Z,99.90
2024-02-22T03:34:06.960Z,99.90
2024-02-22T03:36:36.017Z,99.90
2024-02-22T03:39:06.963Z,99.90
2024-02-22T03:41:35.572Z,99.90
2024-02-22T03:44:04.595Z,99.90
2024-02-22T03:46:33.219Z,99.90
2024-02-22T03:49:01.854Z,99.90
2024-02-22T03:51:30.649Z,99.90
2024-02-22T03:54:02.190Z,99.90
2024-02-22T03:56:30.751Z,99.90
2024-02-22T03:58:59.287Z,99.90
2024-02-22T04:01:28.345Z,99.90
2024-02-22T04:03:56.947Z,99.90
2024-02-22T04:06:26.536Z,99.90
2024-02-22T04:08:55.141Z,99.90
2024-02-22T04:11:23.734Z,99.90
2024-02-22T04:13:52.399Z,99.90
2024-02-22T04:16:21.004Z,99.90
2024-02-22T04:18:49.670Z,99.90
2024-02-22T04:21:18.330Z,99.90
2024-02-22T04:23:46.923Z,99.90
2024-02-22T04:26:15.450Z,99.90
2024-02-22T04:28:44.082Z,99.90
2024-02-22T04:31:13.784Z,99.90
2024-02-22T04:33:43.046Z,99.90
2024-02-22T04:36:11.577Z,99.90
2024-02-22T04:38:40.226Z,99.90
2024-02-22T04:41:09.307Z,99.90
2024-02-22T04:43:37.866Z,99.90
2024-02-22T04:46:06.472Z,99.90
2024-02-22T04:48:35.120Z,99.90
2024-02-22T04:51:03.707Z,99.90
2024-02-22T04:53:32.267Z,99.90
2024-02-22T04:56:01.075Z,99.90
2024-02-22T04:58:29.772Z,99.90
2024-02-22T05:00:58.385Z,99.90
2024-02-22T05:03:26.999Z,99.90
2024-02-22T05:05:55.524Z,99.90
2024-02-22T05:08:26.712Z,99.90
2024-02-22T05:10:57.132Z,99.90
2024-02-22T05:13:26.103Z,99.90
2024-02-22T05:15:54.609Z,99.90
2024-02-22T05:18:23.571Z,99.90
2024-02-22T05:20:52.365Z,99.90
2024-02-22T05:23:20.818Z,99.90
2024-02-22T05:25:49.272Z,99.90
2024-02-22T05:28:18.390Z,99.90
2024-02-22T05:30:46.807Z,99.90
2024-02-22T05:33:15.419Z,99.90
2024-02-22T05:35:43.947Z,99.90
2024-02-22T05:38:12.478Z,99.90
2024-02-22T05:40:43.108Z,99.90
2024-02-22T05:43:12.418Z,99.90
2024-02-22T05:45:48.945Z,99.90
2024-02-22T05:48:17.523Z,99.90
2024-02-22T05:50:49.320Z,99.90
2024-02-22T05:53:18.434Z,99.90
2024-02-22T05:55:46.905Z,99.90
2024-02-22T05:58:20.398Z,99.90
2024-02-22T06:00:49.016Z,99.90
2024-02-22T06:03:17.467Z,99.90
2024-02-22T06:05:46.219Z,99.90
2024-02-22T06:08:14.771Z,99.90
2024-02-22T06:10:43.310Z,99.90
2024-02-22T06:13:11.819Z,99.90
2024-02-22T06:15:40.294Z,99.90
2024-02-22T06:18:09.082Z,99.90
2024-02-22T06:20:37.695Z,99.90
2024-02-22T06:23:06.329Z,99.90
2024-02-22T06:25:34.897Z,99.90
2024-02-22T06:28:04.402Z,99.90
2024-02-22T06:30:32.899Z,99.90
2024-02-22T06:33:01.477Z,99.90
2024-02-22T06:35:30.072Z,99.90
2024-02-22T06:37:58.544Z,99.90
2024-02-22T06:40:27.495Z,99.90
2024-02-22T06:42:55.966Z,99.90
2024-02-22T06:45:26.530Z,99.90
2024-02-22T06:47:55.125Z,99.90
2024-02-22T06:50:25.181Z,99.90
2024-02-22T06:52:53.988Z,99.90
2024-02-22T06:55:26.852Z,99.90
2024-02-22T06:57:56.248Z,99.90
2024-02-22T07:00:25.932Z,99.90
2024-02-22T07:02:54.735Z,99.90
2024-02-22T07:05:23.374Z,99.90
2024-02-22T07:07:52.108Z,99.90
2024-02-22T07:10:20.691Z,99.90
2024-02-22T07:12:49.225Z,99.90
2024-02-22T07:15:18.504Z,99.90
2024-02-22T07:17:47.827Z,99.90
2024-02-22T07:20:16.772Z,99.90
2024-02-22T07:22:47.105Z,99.90
2024-02-22T07:25:16.619Z,99.90
2024-02-22T07:27:45.334Z,99.90
2024-02-22T07:30:15.787Z,99.90
2024-02-22T07:32:44.398Z,99.90
2024-02-22T07:35:15.316Z,99.90
2024-02-22T07:37:43.900Z,99.90
2024-02-22T07:40:12.845Z,99.90
2024-02-22T07:42:42.803Z,99.90
2024-02-22T07:45:12.651Z,99.90
2024-02-22T07:47:41.325Z,99.90
2024-02-22T07:50:13.361Z,99.90
2024-02-22T07:52:42.463Z,99.90
2024-02-22T07:55:11.427Z,99.90
2024-02-22T07:57:40.290Z,99.90
2024-02-22T08:00:10.032Z,99.90
2024-02-22T08:02:38.880Z,99.90
2024-02-22T08:05:08.164Z,99.90
2024-02-22T08:07:36.745Z,99.90
2024-02-22T08:10:05.593Z,99.90
2024-02-22T08:12:34.595Z,99.90
2024-02-22T08:15:04.817Z,99.90
2024-02-22T08:17:33.967Z,99.90
2024-02-22T08:20:02.981Z,99.90
2024-02-22T08:22:31.689Z,99.90
2024-02-22T08:25:00.234Z,99.90
2024-02-22T08:27:28.735Z,99.90
2024-02-22T08:29:57.235Z,99.90
2024-02-22T08:32:25.800Z,99.90
2024-02-22T08:34:54.502Z,99.90
2024-02-22T08:37:23.181Z,99.90
2024-02-22T08:39:52.024Z,99.90
2024-02-22T08:42:22.368Z,99.90
2024-02-22T08:44:51.777Z,99.90
2024-02-22T08:47:20.416Z,99.90
2024-02-22T08:49:49.379Z,99.90
2024-02-22T08:52:20.139Z,99.90
2024-02-22T08:54:49.554Z,99.90
2024-02-22T08:57:18.089Z,99.90
2024-02-22T08:59:46.634Z,99.90
2024-02-22T09:02:16.187Z,99.90
2024-02-22T09:04:45.365Z,99.90
2024-02-22T09:07:13.966Z,99.90
2024-02-22T09:09:42.564Z,99.90
2024-02-22T09:12:11.226Z,99.90
2024-02-22T09:14:40.229Z,99.90
2024-02-22T09:17:08.941Z,99.90
2024-02-22T09:19:37.569Z,99.90
2024-02-22T09:22:06.426Z,99.90
2024-02-22T09:24:35.059Z,99.90
2024-02-22T09:27:03.580Z,99.90
2024-02-22T09:29:32.089Z,99.90
2024-02-22T09:32:00.632Z,99.90
2024-02-22T09:34:29.744Z,99.90
2024-02-22T09:36:58.374Z,99.90
2024-02-22T09:39:26.917Z,99.90
2024-02-22T09:41:56.859Z,99.90
2024-02-22T09:44:26.211Z,99.90
2024-02-22T09:46:58.191Z,99.90
2024-02-22T09:49:27.130Z,99.90
2024-02-22T09:51:56.378Z,99.90
2024-02-22T09:54:27.132Z,99.90
2024-02-22T09:56:57.961Z,99.90
2024-02-22T09:59:26.530Z,99.90
2024-02-22T10:01:58.487Z,99.90
2024-02-22T10:04:27.810Z,99.90
2024-02-22T10:07:03.845Z,99.90
2024-02-22T10:09:33.322Z,99.90
2024-02-22T10:12:07.837Z,99.90
2024-02-22T10:14:39.777Z,99.90
2024-02-22T10:17:09.217Z,99.90
2024-02-22T10:19:37.793Z,99.90
2024-02-22T10:22:06.417Z,99.90
2024-02-22T10:24:35.112Z,99.90
2024-02-22T10:27:09.087Z,99.90
2024-02-22T10:29:39.236Z,99.90
2024-02-22T10:32:09.421Z,99.90
2024-02-22T10:34:38.534Z,99.90
2024-02-22T10:37:07.294Z,99.90
2024-02-22T10:39:36.463Z,99.90
2024-02-22T10:42:05.868Z,99.90
2024-02-22T10:44:34.451Z,99.90
2024-02-22T10:47:05.401Z,99.90
2024-02-22T10:49:34.349Z,99.90
2024-02-22T10:52:06.784Z,99.90
2024-02-22T10:54:36.935Z,99.90
2024-02-22T10:57:08.446Z,99.90
2024-02-22T10:59:37.651Z,99.90
2024-02-22T11:02:06.961Z,99.90
2024-02-22T11:04:36.959Z,99.90
2024-02-22T11:07:09.828Z,99.90
2024-02-22T11:09:45.219Z,99.90
2024-02-22T11:12:15.944Z,99.90
2024-02-22T11:14:44.834Z,99.90
2024-02-22T11:17:20.874Z,99.90
2024-02-22T11:19:54.692Z,99.90
2024-02-22T11:22:23.369Z,99.90
2024-02-22T11:24:51.932Z,99.90
2024-02-22T11:27:21.250Z,99.90
2024-02-22T11:29:49.778Z,99.90
2024-02-22T11:32:22.251Z,99.90
2024-02-22T11:34:55.056Z,99.90
2024-02-22T11:37:23.842Z,99.90
2024-02-22T11:39:59.999Z,99.90
2024-02-22T11:42:30.824Z,99.90
2024-02-22T11:44:59.377Z,99.90
2024-02-22T11:47:28.142Z,99.90
2024-02-22T11:49:56.691Z,99.90
2024-02-22T11:52:27.351Z,99.90
2024-02-22T11:54:55.855Z,99.90
2024-02-22T11:57:24.338Z,99.90
2024-02-22T11:59:52.833Z,99.90
2024-02-22T12:02:22.299Z,99.90
2024-02-22T12:04:52.639Z,99.90
2024-02-22T12:07:22.395Z,99.90
2024-02-22T12:09:51.386Z,99.90
2024-02-22T12:12:20.024Z,99.90
2024-02-22T12:15:01.917Z,99.90
2024-02-22T12:17:34.039Z,99.90
2024-02-22T12:20:04.812Z,99.90
2024-02-22T12:22:36.034Z,99.90
2024-02-22T12:25:04.924Z,99.90
2024-02-22T12:27:34.193Z,99.90
2024-02-22T12:30:03.517Z,99.90
2024-02-22T12:32:32.146Z,99.90
2024-02-22T12:35:01.464Z,99.90
2024-02-22T12:37:30.007Z,99.90
2024-02-22T12:39:58.572Z,99.90
2024-02-22T12:42:27.091Z,99.90
2024-02-22T12:44:55.586Z,99.90
2024-02-22T12:47:24.230Z,99.90
2024-02-22T12:49:53.523Z,99.90
2024-02-22T12:52:22.210Z,99.90
2024-02-22T12:54:50.729Z,99.90
2024-02-22T12:57:19.230Z,99.90
2024-02-22T12:59:47.786Z,99.90
2024-02-22T13:02:16.436Z,99.90
2024-02-22T13:04:45.164Z,99.90
2024-02-22T13:07:15.313Z,99.90
2024-02-22T13:09:43.908Z,99.90
2024-02-22T13:12:12.499Z,99.90
2024-02-22T13:14:41.019Z,99.90
2024-02-22T13:17:10.649Z,99.90
2024-02-22T13:19:39.212Z,99.90
2024-02-22T13:22:07.730Z,99.90
2024-02-22T13:24:37.765Z,99.90
2024-02-22T13:27:08.322Z,99.90
2024-02-22T13:29:37.082Z,99.90
2024-02-22T13:32:05.888Z,99.90
2024-02-22T13:34:37.260Z,99.90
2024-02-22T13:37:08.125Z,99.90
2024-02-22T13:39:36.676Z,99.90
2024-02-22T13:42:05.455Z,99.90
2024-02-22T13:44:34.331Z,99.90
2024-02-22T13:47:02.896Z,99.90
2024-02-22T13:49:31.472Z,99.90
2024-02-22T13:52:06.665Z,99.90
2024-02-22T13:54:39.575Z,99.90
2024-02-22T13:57:08.606Z,99.90
2024-02-22T13:59:37.283Z,99.90
2024-02-22T14:02:06.037Z,99.90
2024-02-22T14:04:34.642Z,99.90
2024-02-22T14:07:06.567Z,99.90
2024-02-22T14:09:35.469Z,99.90
2024-02-22T14:12:05.626Z,99.90
2024-02-22T14:14:34.357Z,99.90
2024-02-22T14:17:04.351Z,99.90
2024-02-22T14:19:33.022Z,99.90
2024-02-22T14:22:01.686Z,99.90
2024-02-22T14:24:30.250Z,99.90
2024-02-22T14:27:12.811Z,99.90
2024-02-22T14:29:45.672Z,99.90
2024-02-22T14:32:16.338Z,99.90
2024-02-22T14:34:45.029Z,99.90
2024-02-22T14:37:13.710Z,99.90
2024-02-22T14:39:43.373Z,99.90
2024-02-22T14:42:11.870Z,99.90
2024-02-22T14:44:40.825Z,99.90
2024-02-22T14:47:10.948Z,99.90
2024-02-22T14:49:45.443Z,99.90
2024-02-22T14:52:14.572Z,99.90
2024-02-22T14:54:44.131Z,99.90
2024-02-22T14:57:13.022Z,99.90
2024-02-22T14:59:41.624Z,99.90
2024-02-22T15:02:10.217Z,99.90
2024-02-22T15:04:38.879Z,99.90
2024-02-22T15:07:08.603Z,99.90
2024-02-22T15:09:37.102Z,99.90
2024-02-22T15:12:06.487Z,99.90
2024-02-22T15:14:35.117Z,99.90
2024-02-22T15:17:04.583Z,99.90
2024-02-22T15:19:35.670Z,99.90
2024-02-22T15:22:07.843Z,99.90
2024-02-22T15:24:36.574Z,99.90
2024-02-22T15:27:05.750Z,99.90
2024-02-22T15:29:34.479Z,99.90
2024-02-22T15:32:03.349Z,99.90
2024-02-22T15:34:32.272Z,99.90
2024-02-22T15:37:00.945Z,99.90
2024-02-22T15:39:29.912Z,99.90
2024-02-22T15:41:58.431Z,99.90
2024-02-22T15:44:27.017Z,99.90
2024-02-22T15:46:55.561Z,99.90
2024-02-22T15:49:24.665Z,99.90
2024-02-22T15:51:56.112Z,99.90
2024-02-22T15:54:24.757Z,99.90
2024-02-22T15:56:53.263Z,99.90
2024-02-22T15:59:21.890Z,99.90
2024-02-22T16:01:52.475Z,99.90
2024-02-22T16:04:21.128Z,99.90
2024-02-22T16:06:51.093Z,99.90
2024-02-22T16:09:19.666Z,99.90
2024-02-22T16:11:48.449Z,99.90
2024-02-22T16:14:17.124Z,99.90
2024-02-22T16:16:48.532Z,99.90
2024-02-22T16:19:17.085Z,99.90
2024-02-22T16:21:45.672Z,99.90
2024-02-22T16:24:14.487Z,99.90
2024-02-22T16:26:44.783Z,99.90
2024-02-22T16:29:13.648Z,99.90
2024-02-22T16:31:42.587Z,99.90
2024-02-22T16:34:12.477Z,99.90
2024-02-22T16:36:41.182Z,99.90
2024-02-22T16:39:12.069Z,99.90
2024-02-22T16:41:42.187Z,99.90
2024-02-22T16:44:10.805Z,99.90
2024-02-22T16:46:45.821Z,99.90
2024-02-22T16:49:14.457Z,99.90
2024-02-22T16:51:43.553Z,99.90
2024-02-22T16:54:12.391Z,99.90
2024-02-22T16:56:44.526Z,99.90
2024-02-22T16:59:13.080Z,99.90
2024-02-22T17:01:41.723Z,99.90
2024-02-22T17:04:11.081Z,99.90
2024-02-22T17:06:39.599Z,99.90
2024-02-22T17:09:08.471Z,99.90
2024-02-22T17:11:37.129Z,99.90
2024-02-22T17:14:06.064Z,99.90
2024-02-22T17:16:36.176Z,99.90
2024-02-22T17:19:04.830Z,99.90
2024-02-22T17:21:33.367Z,99.90
2024-02-22T17:24:01.895Z,99.90
2024-02-22T17:26:30.517Z,99.90
2024-02-22T17:28:59.216Z,99.90
2024-02-22T17:31:28.656Z,94.10
2024-02-22T17:33:57.292Z,88.90
2024-02-22T17:36:25.855Z,90.80
2024-02-22T17:38:54.522Z,90.20
2024-02-22T17:41:23.244Z,88.90
2024-02-22T17:43:52.101Z,78.00
2024-02-22T17:46:21.605Z,76.40
2024-02-22T17:48:50.183Z,74.10
2024-02-22T17:51:22.419Z,71.30
2024-02-22T17:53:51.631Z,77.20
2024-02-22T17:56:20.260Z,79.20
2024-02-22T17:58:55.192Z,67.40
2024-02-22T18:01:26.118Z,43.00
2024-02-22T18:03:54.890Z,26.00
2024-02-22T18:06:24.641Z,15.20
2024-02-22T18:08:54.188Z,20.00
2024-02-22T18:11:22.756Z,16.70
2024-02-22T18:13:51.316Z,18.40
2024-02-22T18:16:19.888Z,9.60
2024-02-22T18:18:48.523Z,12.00
2024-02-22T18:21:17.091Z,11.50
2024-02-22T18:23:46.684Z,7.80
2024-02-22T18:26:16.062Z,7.40
2024-02-22T18:28:45.756Z,8.40
2024-02-22T18:31:14.337Z,2.30
2024-02-22T18:33:43.063Z,7.70
2024-02-22T18:36:12.151Z,3.90
2024-02-22T18:38:43.063Z,12.00
2024-02-22T18:41:15.264Z,12.80
2024-02-22T18:43:44.477Z,13.60
2024-02-22T18:46:13.558Z,5.80
2024-02-22T18:48:42.378Z,6.00
2024-02-22T18:51:11.923Z,13.60
2024-02-22T18:53:40.668Z,10.30
2024-02-22T18:56:09.177Z,16.10
2024-02-22T18:58:37.769Z,12.50
2024-02-22T19:01:06.542Z,16.20
2024-02-22T19:03:35.608Z,11.10
2024-02-22T19:06:04.298Z,4.00
2024-02-22T19:08:32.949Z,5.10
2024-02-22T19:11:01.969Z,4.70
2024-02-22T19:13:30.939Z,1.00
2024-02-22T19:15:59.545Z,1.00
2024-02-22T19:18:28.140Z,1.00
2024-02-22T19:20:59.097Z,1.00
2024-02-22T19:23:27.999Z,1.00
2024-02-22T19:25:56.953Z,1.00
2024-02-22T19:28:25.590Z,1.00
2024-02-22T19:30:54.457Z,1.00
2024-02-22T19:33:23.006Z,1.00
2024-02-22T19:35:51.731Z,1.00
2024-02-22T19:38:22.483Z,1.00
2024-02-22T19:40:52.649Z,1.00
2024-02-22T19:43:21.286Z,1.00
2024-02-22T19:45:49.970Z,1.00
2024-02-22T19:48:18.451Z,1.00
2024-02-22T19:50:46.919Z,1.00
2024-02-22T19:53:15.855Z,1.00
2024-02-22T19:55:45.070Z,1.00
2024-02-22T19:58:15.700Z,1.00
2024-02-22T20:00:45.011Z,1.00
2024-02-22T20:03:14.055Z,1.00
2024-02-22T20:05:43.039Z,1.00
2024-02-22T20:08:11.859Z,1.00
2024-02-22T20:10:41.958Z,1.00
2024-02-22T20:13:12.058Z,1.00
2024-02-22T20:15:40.812Z,1.00
2024-02-22T20:18:09.326Z,1.00
2024-02-22T20:20:37.946Z,1.00
2024-02-22T20:23:06.526Z,1.00
2024-02-22T20:25:35.008Z,1.00
2024-02-22T20:28:03.860Z,1.00
2024-02-22T20:30:32.478Z,1.00
2024-02-22T20:33:01.010Z,1.00
2024-02-22T20:35:30.040Z,1.00
2024-02-22T20:37:58.779Z,1.00
2024-02-22T20:40:27.336Z,1.00
2024-02-22T20:42:57.986Z,1.00
2024-02-22T20:45:26.531Z,1.00
2024-02-22T20:47:55.169Z,1.00
2024-02-22T20:50:25.729Z,1.00
2024-02-22T20:52:54.309Z,1.00
2024-02-22T20:55:22.830Z,1.00
2024-02-22T20:57:51.876Z,1.00
2024-02-22T21:00:20.606Z,1.00
2024-02-22T21:02:49.218Z,1.00
2024-02-22T21:05:17.841Z,1.00
2024-02-22T21:07:48.397Z,1.00
2024-02-22T21:10:17.595Z,1.00
2024-02-22T21:12:46.083Z,1.00
2024-02-22T21:15:14.652Z,1.00
2024-02-22T21:17:43.242Z,1.00
2024-02-22T21:20:13.007Z,1.00
2024-02-22T21:22:41.598Z,1.00
2024-02-22T21:25:10.276Z,1.00
2024-02-22T21:27:39.166Z,1.00
2024-02-22T21:30:08.632Z,1.00
2024-02-22T21:32:38.139Z,1.00
2024-02-22T21:35:10.759Z,1.00
2024-02-22T21:37:39.657Z,1.00
2024-02-22T21:40:10.688Z,1.00
2024-02-22T21:42:39.550Z,1.00
2024-02-22T21:45:08.577Z,1.00
2024-02-22T21:47:37.319Z,1.00
2024-02-22T21:50:06.781Z,1.00
2024-02-22T21:52:35.578Z,1.00
2024-02-22T21:55:04.904Z,1.00
2024-02-22T21:57:34.854Z,1.00
2024-02-22T22:00:07.216Z,1.00
2024-02-22T22:02:36.528Z,1.00
2024-02-22T22:05:08.399Z,1.00
2024-02-22T22:07:41.042Z,1.00
2024-02-22T22:10:10.716Z,1.00
2024-02-22T22:12:39.429Z,1.00
2024-02-22T22:15:08.410Z,1.00
2024-02-22T22:17:37.843Z,1.00
2024-02-22T22:20:07.498Z,1.00
2024-02-22T22:22:36.327Z,1.00
2024-02-22T22:25:05.154Z,1.00
2024-02-22T22:27:33.616Z,1.00
2024-02-22T22:30:02.834Z,1.00
2024-02-22T22:32:31.476Z,1.00
2024-02-22T22:35:00.042Z,1.00
2024-02-22T22:37:28.581Z,1.00
2024-02-22T22:39:57.074Z,1.00
2024-02-22T22:42:25.661Z,1.00
2024-02-22T22:44:54.222Z,1.00
2024-02-22T22:47:22.780Z,1.00
2024-02-22T22:49:51.406Z,1.00
2024-02-22T22:52:20.269Z,1.00
2024-02-22T22:54:48.754Z,1.00
2024-02-22T22:57:17.292Z,1.00
2024-02-22T22:59:48.953Z,1.00
2024-02-22T23:02:17.431Z,1.00
2024-02-22T23:04:45.911Z,1.00
2024-02-22T23:07:15.092Z,1.00
2024-02-22T23:09:44.699Z,1.00
2024-02-22T23:12:13.364Z,1.00
2024-02-22T23:14:42.065Z,1.00
2024-02-22T23:17:10.852Z,1.00
2024-02-22T23:19:39.331Z,1.00
2024-02-22T23:22:07.897Z,1.00
2024-02-22T23:24:36.442Z,1.00
2024-02-22T23:27:06.046Z,1.00
2024-02-22T23:29:34.627Z,1.00
2024-02-22T23:32:03.211Z,1.00
2024-02-22T23:34:31.740Z,1.00
2024-02-22T23:37:00.400Z,1.00
2024-02-22T23:39:28.859Z,1.00
2024-02-22T23:41:58.367Z,1.00
2024-02-22T23:44:27.122Z,1.00
2024-02-22T23:46:56.453Z,1.00
2024-02-22T23:49:25.165Z,1.00
2024-02-22T23:51:53.660Z,1.00
2024-02-22T23:54:22.131Z,1.00
2024-02-22T23:56:50.580Z,1.00
2024-02-22T23:59:20.093Z,1.00
